sensor_id;sensor_type;location;lat;lon;timestamp;P1;durP1;ratioP1;P2;durP2;ratioP2
177;SDS011;77;48.792;9.032;2023-02-25T00:01:05;13.53;;;7.60;;
177;SDS011;77;48.792;9.032;2023-02-25T00:03:30;13.17;;;7.70;;
177;SDS011;77;48.792;9.032;2023-02-25T00:05:56;14.60;;;8.67;;
177;SDS011;77;48.792;9.032;2023-02-25T00:08:21;14.53;;;8.20;;
177;SDS011;77;48.792;9.032;2023-02-25T00:10:54;15.93;;;7.97;;
177;SDS011;77;48.792;9.032;2023-02-25T00:13:19;14.40;;;8.37;;
177;SDS011;77;48.792;9.032;2023-02-25T00:15:47;13.70;;;8.43;;
177;SDS011;77;48.792;9.032;2023-02-25T00:18:12;15.77;;;8.50;;
177;SDS011;77;48.792;9.032;2023-02-25T00:20:38;14.43;;;8.77;;
177;SDS011;77;48.792;9.032;2023-02-25T00:23:03;16.30;;;8.87;;
177;SDS011;77;48.792;9.032;2023-02-25T00:25:28;14.80;;;8.37;;
177;SDS011;77;48.792;9.032;2023-02-25T00:27:53;13.50;;;8.50;;
177;SDS011;77;48.792;9.032;2023-02-25T00:30:19;15.53;;;8.70;;
177;SDS011;77;48.792;9.032;2023-02-25T00:32:45;16.47;;;8.70;;
177;SDS011;77;48.792;9.032;2023-02-25T00:35:10;17.43;;;9.00;;
177;SDS011;77;48.792;9.032;2023-02-25T00:37:36;17.27;;;8.90;;
177;SDS011;77;48.792;9.032;2023-02-25T00:40:01;14.30;;;8.87;;
177;SDS011;77;48.792;9.032;2023-02-25T00:42:26;16.17;;;8.63;;
177;SDS011;77;48.792;9.032;2023-02-25T00:44:51;16.03;;;9.17;;
177;SDS011;77;48.792;9.032;2023-02-25T00:47:17;13.80;;;8.70;;
177;SDS011;77;48.792;9.032;2023-02-25T00:49:44;16.27;;;8.57;;
177;SDS011;77;48.792;9.032;2023-02-25T00:52:10;17.30;;;8.73;;
177;SDS011;77;48.792;9.032;2023-02-25T00:54:35;15.30;;;8.67;;
177;SDS011;77;48.792;9.032;2023-02-25T00:57:00;12.93;;;7.93;;
177;SDS011;77;48.792;9.032;2023-02-25T00:59:25;15.03;;;8.80;;
177;SDS011;77;48.792;9.032;2023-02-25T01:01:51;16.63;;;7.50;;
177;SDS011;77;48.792;9.032;2023-02-25T01:04:16;13.87;;;7.87;;
177;SDS011;77;48.792;9.032;2023-02-25T01:06:42;14.87;;;7.67;;
177;SDS011;77;48.792;9.032;2023-02-25T01:09:08;16.67;;;8.17;;
177;SDS011;77;48.792;9.032;2023-02-25T01:11:34;11.33;;;7.00;;
177;SDS011;77;48.792;9.032;2023-02-25T01:14:00;10.80;;;6.90;;
177;SDS011;77;48.792;9.032;2023-02-25T01:16:26;13.17;;;7.00;;
177;SDS011;77;48.792;9.032;2023-02-25T01:18:51;14.20;;;7.70;;
177;SDS011;77;48.792;9.032;2023-02-25T01:21:17;12.83;;;7.10;;
177;SDS011;77;48.792;9.032;2023-02-25T01:23:44;14.97;;;7.97;;
177;SDS011;77;48.792;9.032;2023-02-25T01:26:10;14.00;;;7.70;;
177;SDS011;77;48.792;9.032;2023-02-25T01:28:35;12.57;;;7.40;;
177;SDS011;77;48.792;9.032;2023-02-25T01:31:00;12.87;;;7.17;;
177;SDS011;77;48.792;9.032;2023-02-25T01:33:25;11.43;;;6.47;;
177;SDS011;77;48.792;9.032;2023-02-25T01:35:50;11.80;;;6.87;;
177;SDS011;77;48.792;9.032;2023-02-25T01:38:16;11.10;;;6.70;;
177;SDS011;77;48.792;9.032;2023-02-25T01:40:42;11.47;;;6.50;;
177;SDS011;77;48.792;9.032;2023-02-25T01:43:11;11.50;;;6.40;;
177;SDS011;77;48.792;9.032;2023-02-25T01:45:36;10.63;;;5.73;;
177;SDS011;77;48.792;9.032;2023-02-25T01:48:08;12.00;;;6.33;;
177;SDS011;77;48.792;9.032;2023-02-25T01:50:39;12.27;;;5.93;;
177;SDS011;77;48.792;9.032;2023-02-25T01:53:05;11.60;;;6.30;;
177;SDS011;77;48.792;9.032;2023-02-25T01:55:30;12.40;;;6.53;;
177;SDS011;77;48.792;9.032;2023-02-25T01:57:57;10.20;;;5.73;;
177;SDS011;77;48.792;9.032;2023-02-25T02:00:24;11.03;;;6.33;;
177;SDS011;77;48.792;9.032;2023-02-25T02:02:49;12.47;;;6.70;;
177;SDS011;77;48.792;9.032;2023-02-25T02:05:14;10.10;;;6.10;;
177;SDS011;77;48.792;9.032;2023-02-25T02:07:39;14.07;;;6.80;;
177;SDS011;77;48.792;9.032;2023-02-25T02:10:05;9.57;;;5.63;;
177;SDS011;77;48.792;9.032;2023-02-25T02:12:31;10.97;;;5.93;;
177;SDS011;77;48.792;9.032;2023-02-25T02:14:59;14.10;;;5.87;;
177;SDS011;77;48.792;9.032;2023-02-25T02:17:26;10.90;;;5.80;;
177;SDS011;77;48.792;9.032;2023-02-25T02:20:00;10.87;;;6.07;;
177;SDS011;77;48.792;9.032;2023-02-25T02:22:27;10.87;;;5.40;;
177;SDS011;77;48.792;9.032;2023-02-25T02:27:42;10.80;;;5.60;;
177;SDS011;77;48.792;9.032;2023-02-25T02:30:17;11.10;;;5.77;;
177;SDS011;77;48.792;9.032;2023-02-25T02:32:50;10.00;;;5.97;;
177;SDS011;77;48.792;9.032;2023-02-25T02:35:18;11.30;;;6.10;;
177;SDS011;77;48.792;9.032;2023-02-25T02:37:46;11.93;;;6.40;;
177;SDS011;77;48.792;9.032;2023-02-25T02:40:17;10.83;;;6.07;;
177;SDS011;77;48.792;9.032;2023-02-25T02:42:45;13.07;;;6.50;;
177;SDS011;77;48.792;9.032;2023-02-25T02:45:15;12.90;;;6.57;;
177;SDS011;77;48.792;9.032;2023-02-25T02:47:42;11.13;;;6.30;;
177;SDS011;77;48.792;9.032;2023-02-25T02:50:12;11.67;;;6.20;;
177;SDS011;77;48.792;9.032;2023-02-25T02:52:39;11.87;;;6.13;;
177;SDS011;77;48.792;9.032;2023-02-25T02:55:06;10.83;;;5.83;;
177;SDS011;77;48.792;9.032;2023-02-25T02:57:34;12.20;;;5.30;;
177;SDS011;77;48.792;9.032;2023-02-25T03:00:00;9.60;;;5.50;;
177;SDS011;77;48.792;9.032;2023-02-25T03:02:27;9.07;;;4.90;;
177;SDS011;77;48.792;9.032;2023-02-25T03:04:55;11.07;;;5.13;;
177;SDS011;77;48.792;9.032;2023-02-25T03:07:24;10.10;;;5.10;;
177;SDS011;77;48.792;9.032;2023-02-25T03:09:51;11.73;;;5.17;;
177;SDS011;77;48.792;9.032;2023-02-25T03:12:16;14.57;;;4.90;;
177;SDS011;77;48.792;9.032;2023-02-25T03:14:42;11.10;;;4.53;;
177;SDS011;77;48.792;9.032;2023-02-25T03:17:08;11.07;;;4.67;;
177;SDS011;77;48.792;9.032;2023-02-25T03:19:34;9.93;;;4.70;;
177;SDS011;77;48.792;9.032;2023-02-25T03:22:01;8.47;;;4.30;;
177;SDS011;77;48.792;9.032;2023-02-25T03:24:31;8.90;;;4.00;;
177;SDS011;77;48.792;9.032;2023-02-25T03:26:56;6.90;;;3.80;;
177;SDS011;77;48.792;9.032;2023-02-25T03:29:22;6.93;;;3.63;;
177;SDS011;77;48.792;9.032;2023-02-25T03:31:49;9.37;;;3.77;;
177;SDS011;77;48.792;9.032;2023-02-25T03:34:17;7.93;;;4.00;;
177;SDS011;77;48.792;9.032;2023-02-25T03:36:44;6.67;;;3.53;;
177;SDS011;77;48.792;9.032;2023-02-25T03:39:11;11.40;;;3.40;;
177;SDS011;77;48.792;9.032;2023-02-25T03:41:41;8.63;;;3.60;;
177;SDS011;77;48.792;9.032;2023-02-25T03:44:08;8.07;;;3.43;;
177;SDS011;77;48.792;9.032;2023-02-25T03:46:35;9.93;;;3.73;;
177;SDS011;77;48.792;9.032;2023-02-25T03:49:02;8.00;;;3.40;;
177;SDS011;77;48.792;9.032;2023-02-25T03:51:29;12.90;;;3.50;;
177;SDS011;77;48.792;9.032;2023-02-25T03:53:55;6.77;;;3.17;;
177;SDS011;77;48.792;9.032;2023-02-25T03:56:20;9.63;;;3.50;;
177;SDS011;77;48.792;9.032;2023-02-25T03:58:46;9.83;;;3.70;;
177;SDS011;77;48.792;9.032;2023-02-25T04:01:13;8.07;;;3.60;;
177;SDS011;77;48.792;9.032;2023-02-25T04:03:39;8.33;;;3.80;;
177;SDS011;77;48.792;9.032;2023-02-25T04:06:04;6.60;;;3.53;;
177;SDS011;77;48.792;9.032;2023-02-25T04:08:29;8.33;;;3.60;;
177;SDS011;77;48.792;9.032;2023-02-25T04:10:54;5.97;;;3.50;;
177;SDS011;77;48.792;9.032;2023-02-25T04:13:19;7.00;;;3.50;;
177;SDS011;77;48.792;9.032;2023-02-25T04:15:46;7.70;;;3.73;;
177;SDS011;77;48.792;9.032;2023-02-25T04:18:12;10.40;;;3.80;;
177;SDS011;77;48.792;9.032;2023-02-25T04:20:37;7.13;;;3.50;;
177;SDS011;77;48.792;9.032;2023-02-25T04:23:03;6.00;;;2.83;;
177;SDS011;77;48.792;9.032;2023-02-25T04:25:28;8.43;;;3.50;;
177;SDS011;77;48.792;9.032;2023-02-25T04:27:53;9.73;;;3.97;;
177;SDS011;77;48.792;9.032;2023-02-25T04:30:18;6.23;;;3.23;;
177;SDS011;77;48.792;9.032;2023-02-25T04:32:45;7.13;;;3.40;;
177;SDS011;77;48.792;9.032;2023-02-25T04:35:10;6.43;;;3.77;;
177;SDS011;77;48.792;9.032;2023-02-25T04:37:35;9.47;;;3.50;;
177;SDS011;77;48.792;9.032;2023-02-25T04:40:01;7.27;;;3.60;;
177;SDS011;77;48.792;9.032;2023-02-25T04:42:26;6.50;;;3.53;;
177;SDS011;77;48.792;9.032;2023-02-25T04:44:51;9.13;;;4.10;;
177;SDS011;77;48.792;9.032;2023-02-25T04:47:16;11.37;;;4.10;;
177;SDS011;77;48.792;9.032;2023-02-25T04:49:43;9.37;;;3.73;;
177;SDS011;77;48.792;9.032;2023-02-25T04:52:08;5.90;;;3.30;;
177;SDS011;77;48.792;9.032;2023-02-25T04:54:33;6.33;;;3.10;;
177;SDS011;77;48.792;9.032;2023-02-25T04:56:58;7.13;;;2.97;;
177;SDS011;77;48.792;9.032;2023-02-25T04:59:23;7.13;;;2.60;;
177;SDS011;77;48.792;9.032;2023-02-25T05:01:48;6.93;;;2.73;;
177;SDS011;77;48.792;9.032;2023-02-25T05:04:14;6.90;;;3.00;;
177;SDS011;77;48.792;9.032;2023-02-25T05:06:40;8.83;;;3.00;;
177;SDS011;77;48.792;9.032;2023-02-25T05:09:05;10.10;;;2.90;;
177;SDS011;77;48.792;9.032;2023-02-25T05:11:31;6.53;;;2.80;;
177;SDS011;77;48.792;9.032;2023-02-25T05:13:56;7.83;;;2.77;;
177;SDS011;77;48.792;9.032;2023-02-25T05:16:21;6.40;;;2.80;;
177;SDS011;77;48.792;9.032;2023-02-25T05:18:46;5.87;;;2.50;;
177;SDS011;77;48.792;9.032;2023-02-25T05:21:12;7.97;;;2.90;;
177;SDS011;77;48.792;9.032;2023-02-25T05:23:39;5.60;;;2.70;;
177;SDS011;77;48.792;9.032;2023-02-25T05:26:05;6.00;;;2.60;;
177;SDS011;77;48.792;9.032;2023-02-25T05:28:30;7.30;;;2.60;;
177;SDS011;77;48.792;9.032;2023-02-25T05:30:55;7.13;;;2.60;;
177;SDS011;77;48.792;9.032;2023-02-25T05:33:21;5.47;;;2.57;;
177;SDS011;77;48.792;9.032;2023-02-25T05:35:46;6.93;;;2.50;;
177;SDS011;77;48.792;9.032;2023-02-25T05:38:11;6.17;;;2.60;;
177;SDS011;77;48.792;9.032;2023-02-25T05:40:38;8.53;;;2.70;;
177;SDS011;77;48.792;9.032;2023-02-25T05:43:03;8.23;;;2.63;;
177;SDS011;77;48.792;9.032;2023-02-25T05:45:28;7.60;;;2.70;;
177;SDS011;77;48.792;9.032;2023-02-25T05:47:54;7.17;;;2.63;;
177;SDS011;77;48.792;9.032;2023-02-25T05:50:19;5.10;;;2.30;;
177;SDS011;77;48.792;9.032;2023-02-25T05:52:44;5.83;;;2.40;;
177;SDS011;77;48.792;9.032;2023-02-25T05:55:09;12.93;;;3.00;;
177;SDS011;77;48.792;9.032;2023-02-25T05:57:36;8.57;;;3.00;;
177;SDS011;77;48.792;9.032;2023-02-25T06:00:01;8.07;;;2.93;;
177;SDS011;77;48.792;9.032;2023-02-25T06:02:26;11.10;;;2.70;;
177;SDS011;77;48.792;9.032;2023-02-25T06:04:52;8.80;;;2.80;;
177;SDS011;77;48.792;9.032;2023-02-25T06:07:17;6.70;;;3.20;;
177;SDS011;77;48.792;9.032;2023-02-25T06:09:42;8.33;;;2.97;;
177;SDS011;77;48.792;9.032;2023-02-25T06:12:07;7.73;;;2.87;;
177;SDS011;77;48.792;9.032;2023-02-25T06:14:34;7.60;;;2.87;;
177;SDS011;77;48.792;9.032;2023-02-25T06:16:59;9.13;;;2.83;;
177;SDS011;77;48.792;9.032;2023-02-25T06:19:25;8.33;;;3.00;;
177;SDS011;77;48.792;9.032;2023-02-25T06:21:50;8.17;;;2.90;;
177;SDS011;77;48.792;9.032;2023-02-25T06:24:16;6.20;;;2.93;;
177;SDS011;77;48.792;9.032;2023-02-25T06:26:41;6.53;;;3.17;;
177;SDS011;77;48.792;9.032;2023-02-25T06:29:06;6.90;;;2.90;;
177;SDS011;77;48.792;9.032;2023-02-25T06:31:33;7.97;;;3.10;;
177;SDS011;77;48.792;9.032;2023-02-25T06:33:58;7.53;;;3.00;;
177;SDS011;77;48.792;9.032;2023-02-25T06:36:23;7.20;;;3.10;;
177;SDS011;77;48.792;9.032;2023-02-25T06:38:49;7.87;;;3.73;;
177;SDS011;77;48.792;9.032;2023-02-25T06:41:15;11.03;;;3.80;;
177;SDS011;77;48.792;9.032;2023-02-25T06:43:40;10.20;;;3.90;;
177;SDS011;77;48.792;9.032;2023-02-25T06:46:06;9.23;;;3.57;;
177;SDS011;77;48.792;9.032;2023-02-25T06:48:32;7.90;;;3.50;;
177;SDS011;77;48.792;9.032;2023-02-25T06:50:58;9.03;;;3.17;;
177;SDS011;77;48.792;9.032;2023-02-25T06:53:23;7.00;;;2.93;;
177;SDS011;77;48.792;9.032;2023-02-25T06:55:48;6.53;;;2.80;;
177;SDS011;77;48.792;9.032;2023-02-25T06:58:13;8.20;;;2.90;;
177;SDS011;77;48.792;9.032;2023-02-25T07:00:39;6.40;;;2.83;;
177;SDS011;77;48.792;9.032;2023-02-25T07:03:04;8.03;;;3.00;;
177;SDS011;77;48.792;9.032;2023-02-25T07:05:30;8.00;;;3.00;;
177;SDS011;77;48.792;9.032;2023-02-25T07:07:56;8.13;;;2.90;;
177;SDS011;77;48.792;9.032;2023-02-25T07:10:21;8.20;;;3.30;;
177;SDS011;77;48.792;9.032;2023-02-25T07:12:46;6.87;;;3.30;;
177;SDS011;77;48.792;9.032;2023-02-25T07:15:11;8.80;;;2.97;;
177;SDS011;77;48.792;9.032;2023-02-25T07:17:37;5.00;;;2.70;;
177;SDS011;77;48.792;9.032;2023-02-25T07:20:02;6.93;;;3.00;;
177;SDS011;77;48.792;9.032;2023-02-25T07:22:29;7.40;;;3.13;;
177;SDS011;77;48.792;9.032;2023-02-25T07:24:54;6.70;;;3.30;;
177;SDS011;77;48.792;9.032;2023-02-25T07:27:19;9.03;;;3.20;;
177;SDS011;77;48.792;9.032;2023-02-25T07:29:44;8.93;;;3.03;;
177;SDS011;77;48.792;9.032;2023-02-25T07:32:09;5.30;;;2.53;;
177;SDS011;77;48.792;9.032;2023-02-25T07:34:35;5.50;;;2.80;;
177;SDS011;77;48.792;9.032;2023-02-25T07:37:01;10.47;;;2.90;;
177;SDS011;77;48.792;9.032;2023-02-25T07:39:27;9.10;;;2.67;;
177;SDS011;77;48.792;9.032;2023-02-25T07:41:52;5.27;;;2.40;;
177;SDS011;77;48.792;9.032;2023-02-25T07:44:17;6.07;;;2.70;;
177;SDS011;77;48.792;9.032;2023-02-25T07:46:43;5.37;;;2.63;;
177;SDS011;77;48.792;9.032;2023-02-25T07:49:08;7.20;;;2.57;;
177;SDS011;77;48.792;9.032;2023-02-25T07:51:33;7.97;;;2.90;;
177;SDS011;77;48.792;9.032;2023-02-25T07:53:58;6.33;;;3.20;;
177;SDS011;77;48.792;9.032;2023-02-25T07:56:27;5.50;;;2.70;;
177;SDS011;77;48.792;9.032;2023-02-25T07:58:53;6.30;;;3.10;;
177;SDS011;77;48.792;9.032;2023-02-25T08:01:20;7.50;;;2.87;;
177;SDS011;77;48.792;9.032;2023-02-25T08:03:46;6.00;;;2.80;;
177;SDS011;77;48.792;9.032;2023-02-25T08:06:11;6.97;;;2.63;;
177;SDS011;77;48.792;9.032;2023-02-25T08:08:36;7.10;;;2.80;;
177;SDS011;77;48.792;9.032;2023-02-25T08:11:03;6.60;;;3.00;;
177;SDS011;77;48.792;9.032;2023-02-25T08:13:30;5.27;;;2.73;;
177;SDS011;77;48.792;9.032;2023-02-25T08:15:55;6.33;;;2.50;;
177;SDS011;77;48.792;9.032;2023-02-25T08:18:21;8.30;;;2.70;;
177;SDS011;77;48.792;9.032;2023-02-25T08:20:46;5.30;;;2.67;;
177;SDS011;77;48.792;9.032;2023-02-25T08:23:11;8.20;;;2.90;;
177;SDS011;77;48.792;9.032;2023-02-25T08:25:36;7.13;;;3.00;;
177;SDS011;77;48.792;9.032;2023-02-25T08:28:02;10.73;;;3.10;;
177;SDS011;77;48.792;9.032;2023-02-25T08:30:28;5.40;;;2.60;;
177;SDS011;77;48.792;9.032;2023-02-25T08:32:53;5.20;;;2.73;;
177;SDS011;77;48.792;9.032;2023-02-25T08:35:19;5.00;;;2.60;;
177;SDS011;77;48.792;9.032;2023-02-25T08:37:44;7.43;;;2.50;;
177;SDS011;77;48.792;9.032;2023-02-25T08:40:09;6.20;;;2.93;;
177;SDS011;77;48.792;9.032;2023-02-25T08:42:35;4.93;;;2.83;;
177;SDS011;77;48.792;9.032;2023-02-25T08:45:00;6.10;;;2.87;;
177;SDS011;77;48.792;9.032;2023-02-25T08:47:26;7.33;;;2.97;;
177;SDS011;77;48.792;9.032;2023-02-25T08:49:52;6.53;;;2.90;;
177;SDS011;77;48.792;9.032;2023-02-25T08:52:17;5.50;;;2.90;;
177;SDS011;77;48.792;9.032;2023-02-25T08:54:42;6.57;;;2.80;;
177;SDS011;77;48.792;9.032;2023-02-25T08:57:07;6.87;;;2.90;;
177;SDS011;77;48.792;9.032;2023-02-25T08:59:32;5.20;;;2.93;;
177;SDS011;77;48.792;9.032;2023-02-25T09:01:58;5.17;;;2.93;;
177;SDS011;77;48.792;9.032;2023-02-25T09:04:24;7.53;;;2.90;;
177;SDS011;77;48.792;9.032;2023-02-25T09:06:50;6.33;;;2.80;;
177;SDS011;77;48.792;9.032;2023-02-25T09:09:15;6.03;;;2.73;;
177;SDS011;77;48.792;9.032;2023-02-25T09:11:44;7.00;;;3.20;;
177;SDS011;77;48.792;9.032;2023-02-25T09:14:12;6.00;;;2.33;;
177;SDS011;77;48.792;9.032;2023-02-25T09:16:37;5.13;;;2.63;;
177;SDS011;77;48.792;9.032;2023-02-25T09:19:02;5.20;;;2.37;;
177;SDS011;77;48.792;9.032;2023-02-25T09:21:29;7.30;;;2.43;;
177;SDS011;77;48.792;9.032;2023-02-25T09:23:54;7.50;;;2.37;;
177;SDS011;77;48.792;9.032;2023-02-25T09:26:20;5.43;;;2.33;;
177;SDS011;77;48.792;9.032;2023-02-25T09:28:45;4.97;;;2.10;;
177;SDS011;77;48.792;9.032;2023-02-25T09:31:10;4.20;;;2.10;;
177;SDS011;77;48.792;9.032;2023-02-25T09:33:36;5.20;;;2.33;;
177;SDS011;77;48.792;9.032;2023-02-25T09:36:05;4.90;;;2.23;;
177;SDS011;77;48.792;9.032;2023-02-25T09:38:31;3.40;;;1.93;;
177;SDS011;77;48.792;9.032;2023-02-25T09:40:57;4.30;;;1.90;;
177;SDS011;77;48.792;9.032;2023-02-25T09:43:22;3.90;;;2.07;;
177;SDS011;77;48.792;9.032;2023-02-25T09:45:49;3.77;;;1.80;;
177;SDS011;77;48.792;9.032;2023-02-25T09:48:16;4.20;;;1.93;;
177;SDS011;77;48.792;9.032;2023-02-25T09:50:43;3.80;;;2.03;;
177;SDS011;77;48.792;9.032;2023-02-25T09:53:12;4.30;;;1.83;;
177;SDS011;77;48.792;9.032;2023-02-25T09:55:40;4.80;;;1.93;;
177;SDS011;77;48.792;9.032;2023-02-25T09:58:07;3.57;;;1.97;;
177;SDS011;77;48.792;9.032;2023-02-25T10:00:39;2.77;;;1.80;;
177;SDS011;77;48.792;9.032;2023-02-25T10:03:06;3.30;;;1.80;;
177;SDS011;77;48.792;9.032;2023-02-25T10:05:35;3.97;;;2.00;;
177;SDS011;77;48.792;9.032;2023-02-25T10:08:08;4.33;;;1.90;;
177;SDS011;77;48.792;9.032;2023-02-25T10:10:37;6.60;;;2.63;;
177;SDS011;77;48.792;9.032;2023-02-25T10:13:07;2.83;;;1.70;;
177;SDS011;77;48.792;9.032;2023-02-25T10:15:41;3.40;;;1.60;;
177;SDS011;77;48.792;9.032;2023-02-25T10:18:13;4.00;;;1.73;;
177;SDS011;77;48.792;9.032;2023-02-25T10:20:51;3.00;;;1.53;;
177;SDS011;77;48.792;9.032;2023-02-25T10:23:19;2.17;;;1.50;;
177;SDS011;77;48.792;9.032;2023-02-25T10:25:48;3.20;;;1.77;;
177;SDS011;77;48.792;9.032;2023-02-25T10:28:16;3.00;;;1.80;;
177;SDS011;77;48.792;9.032;2023-02-25T10:30:45;2.93;;;1.90;;
177;SDS011;77;48.792;9.032;2023-02-25T10:33:13;3.83;;;1.90;;
177;SDS011;77;48.792;9.032;2023-02-25T10:35:39;5.50;;;2.20;;
177;SDS011;77;48.792;9.032;2023-02-25T10:38:05;4.70;;;2.00;;
177;SDS011;77;48.792;9.032;2023-02-25T10:40:30;3.53;;;2.13;;
177;SDS011;77;48.792;9.032;2023-02-25T10:42:57;3.70;;;1.87;;
177;SDS011;77;48.792;9.032;2023-02-25T10:45:25;3.37;;;2.00;;
177;SDS011;77;48.792;9.032;2023-02-25T10:47:53;6.70;;;2.30;;
177;SDS011;77;48.792;9.032;2023-02-25T10:50:20;7.37;;;2.00;;
177;SDS011;77;48.792;9.032;2023-02-25T10:52:56;4.60;;;2.20;;
177;SDS011;77;48.792;9.032;2023-02-25T10:58:34;2.97;;;1.70;;
177;SDS011;77;48.792;9.032;2023-02-25T11:01:03;2.93;;;1.50;;
177;SDS011;77;48.792;9.032;2023-02-25T11:03:30;4.17;;;1.90;;
177;SDS011;77;48.792;9.032;2023-02-25T11:08:39;3.30;;;1.80;;
177;SDS011;77;48.792;9.032;2023-02-25T11:11:04;4.13;;;1.90;;
177;SDS011;77;48.792;9.032;2023-02-25T11:13:36;5.70;;;2.13;;
177;SDS011;77;48.792;9.032;2023-02-25T11:16:04;4.20;;;2.47;;
177;SDS011;77;48.792;9.032;2023-02-25T11:18:30;5.80;;;2.47;;
177;SDS011;77;48.792;9.032;2023-02-25T11:20:56;4.23;;;2.20;;
177;SDS011;77;48.792;9.032;2023-02-25T11:23:23;4.17;;;2.30;;
177;SDS011;77;48.792;9.032;2023-02-25T11:25:52;4.40;;;2.40;;
177;SDS011;77;48.792;9.032;2023-02-25T11:28:19;5.20;;;2.33;;
177;SDS011;77;48.792;9.032;2023-02-25T11:30:47;3.73;;;2.50;;
177;SDS011;77;48.792;9.032;2023-02-25T11:33:17;4.40;;;2.20;;
177;SDS011;77;48.792;9.032;2023-02-25T11:35:45;3.97;;;2.27;;
177;SDS011;77;48.792;9.032;2023-02-25T11:38:14;4.07;;;2.10;;
177;SDS011;77;48.792;9.032;2023-02-25T11:40:40;5.83;;;2.50;;
177;SDS011;77;48.792;9.032;2023-02-25T11:43:15;3.93;;;2.30;;
177;SDS011;77;48.792;9.032;2023-02-25T11:45:46;3.77;;;2.30;;
177;SDS011;77;48.792;9.032;2023-02-25T11:48:15;3.73;;;2.20;;
177;SDS011;77;48.792;9.032;2023-02-25T11:50:43;4.13;;;2.30;;
177;SDS011;77;48.792;9.032;2023-02-25T11:53:12;5.83;;;2.30;;
177;SDS011;77;48.792;9.032;2023-02-25T11:55:43;5.03;;;2.47;;
177;SDS011;77;48.792;9.032;2023-02-25T11:58:15;4.60;;;2.50;;
177;SDS011;77;48.792;9.032;2023-02-25T12:00:44;5.60;;;2.40;;
177;SDS011;77;48.792;9.032;2023-02-25T12:06:15;4.40;;;2.40;;
177;SDS011;77;48.792;9.032;2023-02-25T12:08:52;4.97;;;2.33;;
177;SDS011;77;48.792;9.032;2023-02-25T12:11:44;6.13;;;2.60;;
177;SDS011;77;48.792;9.032;2023-02-25T12:14:36;5.63;;;2.50;;
177;SDS011;77;48.792;9.032;2023-02-25T12:17:19;4.27;;;2.47;;
177;SDS011;77;48.792;9.032;2023-02-25T12:20:02;6.90;;;2.80;;
177;SDS011;77;48.792;9.032;2023-02-25T12:25:15;4.90;;;2.77;;
177;SDS011;77;48.792;9.032;2023-02-25T12:27:53;7.10;;;2.63;;
177;SDS011;77;48.792;9.032;2023-02-25T12:33:09;5.40;;;2.87;;
177;SDS011;77;48.792;9.032;2023-02-25T12:35:41;7.20;;;3.03;;
177;SDS011;77;48.792;9.032;2023-02-25T12:38:28;7.03;;;2.90;;
177;SDS011;77;48.792;9.032;2023-02-25T12:41:12;4.90;;;2.70;;
177;SDS011;77;48.792;9.032;2023-02-25T12:43:43;6.90;;;2.90;;
177;SDS011;77;48.792;9.032;2023-02-25T12:46:13;6.70;;;3.07;;
177;SDS011;77;48.792;9.032;2023-02-25T12:48:45;8.20;;;3.03;;
177;SDS011;77;48.792;9.032;2023-02-25T12:51:27;7.73;;;3.20;;
177;SDS011;77;48.792;9.032;2023-02-25T12:53:56;9.30;;;3.13;;
177;SDS011;77;48.792;9.032;2023-02-25T12:59:26;7.50;;;3.60;;
177;SDS011;77;48.792;9.032;2023-02-25T13:02:11;7.20;;;3.50;;
177;SDS011;77;48.792;9.032;2023-02-25T13:04:44;8.30;;;3.33;;
177;SDS011;77;48.792;9.032;2023-02-25T13:10:01;5.93;;;2.97;;
177;SDS011;77;48.792;9.032;2023-02-25T13:12:35;10.27;;;3.60;;
177;SDS011;77;48.792;9.032;2023-02-25T13:15:06;6.87;;;3.33;;
177;SDS011;77;48.792;9.032;2023-02-25T13:17:41;6.40;;;3.20;;
177;SDS011;77;48.792;9.032;2023-02-25T13:20:24;10.57;;;3.50;;
177;SDS011;77;48.792;9.032;2023-02-25T13:22:54;6.87;;;3.07;;
177;SDS011;77;48.792;9.032;2023-02-25T13:25:22;6.60;;;3.07;;
177;SDS011;77;48.792;9.032;2023-02-25T13:30:31;8.43;;;3.70;;
177;SDS011;77;48.792;9.032;2023-02-25T13:33:09;5.23;;;2.80;;
177;SDS011;77;48.792;9.032;2023-02-25T13:35:39;7.90;;;3.33;;
177;SDS011;77;48.792;9.032;2023-02-25T13:38:13;8.33;;;3.70;;
177;SDS011;77;48.792;9.032;2023-02-25T13:40:49;8.10;;;3.50;;
177;SDS011;77;48.792;9.032;2023-02-25T13:43:20;7.13;;;3.40;;
177;SDS011;77;48.792;9.032;2023-02-25T13:45:56;7.53;;;2.93;;
177;SDS011;77;48.792;9.032;2023-02-25T13:51:37;6.87;;;3.33;;
177;SDS011;77;48.792;9.032;2023-02-25T13:54:12;7.83;;;3.17;;
177;SDS011;77;48.792;9.032;2023-02-25T13:56:44;7.20;;;2.80;;
177;SDS011;77;48.792;9.032;2023-02-25T13:59:15;8.13;;;3.07;;
177;SDS011;77;48.792;9.032;2023-02-25T14:01:45;5.70;;;2.50;;
177;SDS011;77;48.792;9.032;2023-02-25T14:04:23;5.60;;;2.47;;
177;SDS011;77;48.792;9.032;2023-02-25T14:06:59;6.10;;;2.60;;
177;SDS011;77;48.792;9.032;2023-02-25T14:09:31;5.37;;;2.30;;
177;SDS011;77;48.792;9.032;2023-02-25T14:12:00;4.60;;;2.27;;
177;SDS011;77;48.792;9.032;2023-02-25T14:17:20;6.63;;;2.60;;
177;SDS011;77;48.792;9.032;2023-02-25T14:19:50;5.90;;;2.40;;
177;SDS011;77;48.792;9.032;2023-02-25T14:22:22;5.90;;;2.00;;
177;SDS011;77;48.792;9.032;2023-02-25T14:24:53;5.13;;;2.30;;
177;SDS011;77;48.792;9.032;2023-02-25T14:27:22;5.87;;;2.33;;
177;SDS011;77;48.792;9.032;2023-02-25T14:29:55;5.53;;;2.40;;
177;SDS011;77;48.792;9.032;2023-02-25T14:32:28;6.13;;;2.40;;
177;SDS011;77;48.792;9.032;2023-02-25T14:35:05;4.50;;;2.00;;
177;SDS011;77;48.792;9.032;2023-02-25T14:37:37;5.20;;;2.30;;
177;SDS011;77;48.792;9.032;2023-02-25T14:40:24;8.50;;;2.30;;
177;SDS011;77;48.792;9.032;2023-02-25T14:42:55;5.97;;;2.57;;
177;SDS011;77;48.792;9.032;2023-02-25T14:45:25;5.33;;;2.30;;
177;SDS011;77;48.792;9.032;2023-02-25T14:47:55;5.13;;;2.50;;
177;SDS011;77;48.792;9.032;2023-02-25T14:50:23;7.20;;;2.50;;
177;SDS011;77;48.792;9.032;2023-02-25T14:55:36;5.43;;;2.27;;
177;SDS011;77;48.792;9.032;2023-02-25T14:58:07;5.20;;;2.70;;
177;SDS011;77;48.792;9.032;2023-02-25T15:00:41;7.37;;;2.73;;
177;SDS011;77;48.792;9.032;2023-02-25T15:03:21;6.70;;;2.80;;
177;SDS011;77;48.792;9.032;2023-02-25T15:05:54;8.10;;;2.93;;
177;SDS011;77;48.792;9.032;2023-02-25T15:11:11;7.03;;;2.57;;
177;SDS011;77;48.792;9.032;2023-02-25T15:13:43;8.90;;;2.70;;
177;SDS011;77;48.792;9.032;2023-02-25T15:16:19;5.63;;;2.77;;
177;SDS011;77;48.792;9.032;2023-02-25T15:19:04;6.93;;;2.97;;
177;SDS011;77;48.792;9.032;2023-02-25T15:21:36;6.30;;;2.70;;
177;SDS011;77;48.792;9.032;2023-02-25T15:24:02;6.03;;;2.40;;
177;SDS011;77;48.792;9.032;2023-02-25T15:26:38;8.73;;;3.00;;
177;SDS011;77;48.792;9.032;2023-02-25T15:29:04;7.10;;;2.60;;
177;SDS011;77;48.792;9.032;2023-02-25T15:31:29;6.83;;;2.70;;
177;SDS011;77;48.792;9.032;2023-02-25T15:36:41;7.60;;;3.20;;
177;SDS011;77;48.792;9.032;2023-02-25T15:39:06;5.37;;;2.60;;
177;SDS011;77;48.792;9.032;2023-02-25T15:41:36;4.90;;;2.50;;
177;SDS011;77;48.792;9.032;2023-02-25T15:44:06;6.33;;;2.90;;
177;SDS011;77;48.792;9.032;2023-02-25T15:46:54;5.33;;;2.70;;
177;SDS011;77;48.792;9.032;2023-02-25T15:49:34;6.80;;;2.83;;
177;SDS011;77;48.792;9.032;2023-02-25T15:52:01;7.20;;;3.00;;
177;SDS011;77;48.792;9.032;2023-02-25T15:54:44;6.87;;;3.23;;
177;SDS011;77;48.792;9.032;2023-02-25T15:59:49;8.67;;;3.00;;
177;SDS011;77;48.792;9.032;2023-02-25T16:05:04;9.47;;;3.50;;
177;SDS011;77;48.792;9.032;2023-02-25T16:07:40;7.23;;;3.00;;
177;SDS011;77;48.792;9.032;2023-02-25T16:10:07;12.17;;;3.30;;
177;SDS011;77;48.792;9.032;2023-02-25T16:12:33;11.07;;;3.50;;
177;SDS011;77;48.792;9.032;2023-02-25T16:14:58;10.63;;;3.73;;
177;SDS011;77;48.792;9.032;2023-02-25T16:17:26;8.47;;;3.43;;
177;SDS011;77;48.792;9.032;2023-02-25T16:19:53;6.70;;;3.07;;
177;SDS011;77;48.792;9.032;2023-02-25T16:22:18;9.13;;;3.60;;
177;SDS011;77;48.792;9.032;2023-02-25T16:24:47;11.17;;;3.47;;
177;SDS011;77;48.792;9.032;2023-02-25T16:27:13;14.93;;;3.40;;
177;SDS011;77;48.792;9.032;2023-02-25T16:29:47;11.60;;;4.00;;
177;SDS011;77;48.792;9.032;2023-02-25T16:32:18;8.20;;;3.70;;
177;SDS011;77;48.792;9.032;2023-02-25T16:34:48;8.00;;;3.70;;
177;SDS011;77;48.792;9.032;2023-02-25T16:37:15;9.10;;;3.93;;
177;SDS011;77;48.792;9.032;2023-02-25T16:39:43;9.97;;;4.27;;
177;SDS011;77;48.792;9.032;2023-02-25T16:42:11;9.83;;;4.60;;
177;SDS011;77;48.792;9.032;2023-02-25T16:44:36;8.47;;;4.30;;
177;SDS011;77;48.792;9.032;2023-02-25T16:47:02;11.53;;;5.27;;